^^
Saratoga-Weather Station Historical Data
Daily Summary for March 4, 2020 Units:  Both    English   Metric
Daily Weekly Monthly Yearly Custom
  High: Low: Average:
Temperature: 64.9 °F /  18.3 °C 37.8 °F /  3.2 °C 50.9 °F /  10.5 °C
Dew Point: 50 °F /  10 °C 36.5 °F /  2.5 °C 43.5 °F /  6.4 °C
Humidity: 96% 46% 78%
Wind Speed: 6mph /  9.7km/h - 0.7mph /  1.2km/h
Wind Gust: 9mph /  14.5km/h - -
Wind- - SE
Pressure: 30.1 in /  1018.6 hPa 30 in /  1015.2 hPa -
Precipitation: 0 in /  0.0 mm    
Historical Graphs
 
 
Tabular Data for March 4, 2020
Time Temperature Dew Point Pressure Wind Wind Speed Wind Gust Humidity Rainfall Rate (Hourly) solar
00:00 43.5 °F /  6.4 °C 41.4 °F /  5.2 °C 30in /  1015.2hPa Calm     92% 0in /  0.0mm 0 W/m2
00:05 43.3 °F /  6.3 °C 41.2 °F /  5.1 °C 30in /  1015.2hPa Calm     92% 0in /  0.0mm 0 W/m2
00:10 43.3 °F /  6.3 °C 41.2 °F /  5.1 °C 30in /  1015.2hPa Calm     92% 0in /  0.0mm 0 W/m2
00:15 43.3 °F /  6.3 °C 41.5 °F /  5.3 °C 30in /  1015.2hPa Calm     93% 0in /  0.0mm 0 W/m2
00:20 43.3 °F /  6.3 °C 41.2 °F /  5.1 °C 30in /  1015.2hPa Calm     92% 0in /  0.0mm 0 W/m2
00:25 43.3 °F /  6.3 °C 41.2 °F /  5.1 °C 30in /  1015.2hPa Calm     92% 0in /  0.0mm 0 W/m2
00:30 43.3 °F /  6.3 °C 41.2 °F /  5.1 °C 30in /  1015.2hPa Calm     92% 0in /  0.0mm 0 W/m2
00:35 43.2 °F /  6.2 °C 41 °F /  5 °C 30in /  1015.2hPa Calm     92% 0in /  0.0mm 0 W/m2
00:40 43.2 °F /  6.2 °C 41 °F /  5 °C 30in /  1015.2hPa Calm     92% 0in /  0.0mm 0 W/m2
00:45 43 °F /  6.1 °C 41.2 °F /  5.1 °C 30in /  1015.2hPa Calm     93% 0in /  0.0mm 0 W/m2
00:50 43 °F /  6.1 °C 41.2 °F /  5.1 °C 30in /  1015.2hPa Calm     93% 0in /  0.0mm 0 W/m2
00:55 43 °F /  6.1 °C 41.2 °F /  5.1 °C 30in /  1015.2hPa Calm     93% 0in /  0.0mm 0 W/m2
01:00 42.8 °F /  6 °C 40.6 °F /  4.8 °C 30in /  1015.6hPa Calm     92% 0in /  0.0mm 0 W/m2
01:05 42.6 °F /  5.9 °C 40.8 °F /  4.9 °C 30in /  1015.6hPa Calm     93% 0in /  0.0mm 0 W/m2
01:11 42.6 °F /  5.9 °C 40.8 °F /  4.9 °C 30in /  1015.6hPa Calm     93% 0in /  0.0mm 0 W/m2
01:16 42.6 °F /  5.9 °C 40.8 °F /  4.9 °C 30in /  1015.6hPa Calm     93% 0in /  0.0mm 0 W/m2
01:21 42.6 °F /  5.9 °C 40.8 °F /  4.9 °C 30in /  1015.6hPa Calm     93% 0in /  0.0mm 0 W/m2
01:26 42.4 °F /  5.8 °C 40.6 °F /  4.8 °C 30in /  1015.6hPa Calm     93% 0in /  0.0mm 0 W/m2
01:31 42.4 °F /  5.8 °C 40.6 °F /  4.8 °C 30in /  1015.6hPa Calm     93% 0in /  0.0mm 0 W/m2
01:36 42.4 °F /  5.8 °C 40.6 °F /  4.8 °C 30in /  1015.9hPa Calm     93% 0in /  0.0mm 0 W/m2
01:41 42.3 °F /  5.7 °C 40.5 °F /  4.7 °C 30in /  1015.9hPa Calm     93% 0in /  0.0mm 0 W/m2
01:46 42.3 °F /  5.7 °C 40.5 °F /  4.7 °C 30in /  1015.9hPa Calm     93% 0in /  0.0mm 0 W/m2
01:51 42.3 °F /  5.7 °C 40.5 °F /  4.7 °C 30in /  1015.9hPa Calm     93% 0in /  0.0mm 0 W/m2
01:56 42.1 °F /  5.6 °C 40.3 °F /  4.6 °C 30in /  1015.9hPa Calm     93% 0in /  0.0mm 0 W/m2
02:01 41.9 °F /  5.5 °C 40.1 °F /  4.5 °C 30in /  1016.3hPa Calm     93% 0in /  0.0mm 0 W/m2
02:06 41.7 °F /  5.4 °C 39.9 °F /  4.4 °C 30in /  1016.3hPa Calm     93% 0in /  0.0mm 0 W/m2
02:11 41.5 °F /  5.3 °C 39.7 °F /  4.3 °C 30in /  1015.9hPa Calm     93% 0in /  0.0mm 0 W/m2
02:16 41.5 °F /  5.3 °C 39.9 °F /  4.4 °C 30in /  1016.3hPa Calm     94% 0in /  0.0mm 0 W/m2
02:21 41.5 °F /  5.3 °C 39.9 °F /  4.4 °C 30in /  1016.3hPa Calm     94% 0in /  0.0mm 0 W/m2
02:26 41.4 °F /  5.2 °C 39.7 °F /  4.3 °C 30in /  1016.3hPa Calm     94% 0in /  0.0mm 0 W/m2
02:31 41.4 °F /  5.2 °C 39.6 °F /  4.2 °C 30in /  1016.3hPa Calm     93% 0in /  0.0mm 0 W/m2
02:36 41.2 °F /  5.1 °C 39.6 °F /  4.2 °C 30in /  1016.3hPa Calm     94% 0in /  0.0mm 0 W/m2
02:41 41 °F /  5 °C 39.4 °F /  4.1 °C 30in /  1016.3hPa Calm     94% 0in /  0.0mm 0 W/m2
02:46 40.8 °F /  4.9 °C 39.2 °F /  4 °C 30in /  1016.3hPa Calm     94% 0in /  0.0mm 0 W/m2
02:51 40.6 °F /  4.8 °C 39 °F /  3.9 °C 30in /  1016.3hPa Calm     94% 0in /  0.0mm 0 W/m2
02:56 40.5 °F /  4.7 °C 38.8 °F /  3.8 °C 30in /  1016.3hPa Calm     94% 0in /  0.0mm 0 W/m2
03:01 40.5 °F /  4.7 °C 38.8 °F /  3.8 °C 30in /  1016.3hPa Calm     94% 0in /  0.0mm 0 W/m2
03:06 40.5 °F /  4.7 °C 38.8 °F /  3.8 °C 30in /  1016.3hPa Calm     94% 0in /  0.0mm 0 W/m2
03:11 40.5 °F /  4.7 °C 38.8 °F /  3.8 °C 30in /  1016.3hPa Calm     94% 0in /  0.0mm 0 W/m2
03:16 40.5 °F /  4.7 °C 38.8 °F /  3.8 °C 30in /  1016.3hPa Calm     94% 0in /  0.0mm 0 W/m2
03:21 40.5 °F /  4.7 °C 38.8 °F /  3.8 °C 30in /  1016.3hPa Calm     94% 0in /  0.0mm 0 W/m2
03:26 40.3 °F /  4.6 °C 38.7 °F /  3.7 °C 30in /  1016.3hPa Calm     94% 0in /  0.0mm 0 W/m2
03:31 40.3 °F /  4.6 °C 38.7 °F /  3.7 °C 30in /  1016.3hPa Calm     94% 0in /  0.0mm 0 W/m2
03:36 40.1 °F /  4.5 °C 38.5 °F /  3.6 °C 30in /  1016.3hPa Calm     94% 0in /  0.0mm 0 W/m2
03:41 39.9 °F /  4.4 °C 38.3 °F /  3.5 °C 30in /  1016.3hPa Calm     94% 0in /  0.0mm 0 W/m2
03:46 39.9 °F /  4.4 °C 38.3 °F /  3.5 °C 30in /  1016.3hPa Calm     94% 0in /  0.0mm 0 W/m2
03:51 39.9 °F /  4.4 °C 38.3 °F /  3.5 °C 30in /  1016.3hPa Calm     94% 0in /  0.0mm 0 W/m2
03:56 39.7 °F /  4.3 °C 38.1 °F /  3.4 °C 30in /  1016.3hPa Calm     94% 0in /  0.0mm 0 W/m2
04:01 39.7 °F /  4.3 °C 38.1 °F /  3.4 °C 30in /  1016.3hPa Calm     94% 0in /  0.0mm 0 W/m2
04:06 39.6 °F /  4.2 °C 37.9 °F /  3.3 °C 30in /  1016.3hPa Calm     94% 0in /  0.0mm 0 W/m2
04:11 39.4 °F /  4.1 °C 38.1 °F /  3.4 °C 30in /  1016.3hPa Calm     95% 0in /  0.0mm 0 W/m2
04:16 39.4 °F /  4.1 °C 38.1 °F /  3.4 °C 30in /  1016.3hPa Calm     95% 0in /  0.0mm 0 W/m2
04:21 39.4 °F /  4.1 °C 38.1 °F /  3.4 °C 30in /  1016.3hPa Calm     95% 0in /  0.0mm 0 W/m2
04:26 39.2 °F /  4 °C 37.9 °F /  3.3 °C 30in /  1016.6hPa Calm     95% 0in /  0.0mm 0 W/m2
04:31 39 °F /  3.9 °C 37.8 °F /  3.2 °C 30in /  1016.6hPa Calm     95% 0in /  0.0mm 0 W/m2
04:37 39 °F /  3.9 °C 37.8 °F /  3.2 °C 30in /  1016.6hPa Calm     95% 0in /  0.0mm 0 W/m2
04:42 38.8 °F /  3.8 °C 37.6 °F /  3.1 °C 30in /  1016.6hPa Calm     95% 0in /  0.0mm 0 W/m2
04:47 38.8 °F /  3.8 °C 37.6 °F /  3.1 °C 30in /  1016.6hPa Calm     95% 0in /  0.0mm 0 W/m2
04:52 38.8 °F /  3.8 °C 37.6 °F /  3.1 °C 30in /  1016.6hPa Calm     95% 0in /  0.0mm 0 W/m2
04:57 38.7 °F /  3.7 °C 37.4 °F /  3 °C 30in /  1016.6hPa Calm     95% 0in /  0.0mm 0 W/m2
05:02 38.7 °F /  3.7 °C 37.4 °F /  3 °C 30in /  1016.6hPa Calm     95% 0in /  0.0mm 0 W/m2
05:07 38.5 °F /  3.6 °C 37.2 °F /  2.9 °C 30in /  1016.9hPa Calm     95% 0in /  0.0mm 0 W/m2
05:12 38.3 °F /  3.5 °C 37 °F /  2.8 °C 30in /  1016.9hPa Calm     95% 0in /  0.0mm 0 W/m2
05:17 38.3 °F /  3.5 °C 37 °F /  2.8 °C 30in /  1016.9hPa Calm     95% 0in /  0.0mm 0 W/m2
05:22 38.3 °F /  3.5 °C 37 °F /  2.8 °C 30in /  1016.9hPa Calm     95% 0in /  0.0mm 0 W/m2
05:27 38.3 °F /  3.5 °C 37 °F /  2.8 °C 30in /  1016.9hPa Calm     95% 0in /  0.0mm 0 W/m2
05:32 38.5 °F /  3.6 °C 37.2 °F /  2.9 °C 30in /  1016.9hPa Calm     95% 0in /  0.0mm 0 W/m2
05:37 38.5 °F /  3.6 °C 37.2 °F /  2.9 °C 30in /  1016.9hPa Calm     95% 0in /  0.0mm 0 W/m2
05:42 38.5 °F /  3.6 °C 37.2 °F /  2.9 °C 30in /  1016.9hPa Calm     95% 0in /  0.0mm 0 W/m2
05:47 38.5 °F /  3.6 °C 37.2 °F /  2.9 °C 30in /  1016.9hPa Calm     95% 0in /  0.0mm 0 W/m2
05:52 38.5 °F /  3.6 °C 37.2 °F /  2.9 °C 30in /  1016.9hPa Calm     95% 0in /  0.0mm 0 W/m2
05:57 38.5 °F /  3.6 °C 37.2 °F /  2.9 °C 30in /  1016.9hPa Calm     95% 0in /  0.0mm 0 W/m2
06:02 38.3 °F /  3.5 °C 37 °F /  2.8 °C 30in /  1016.9hPa Calm     95% 0in /  0.0mm 0 W/m2
06:07 38.1 °F /  3.4 °C 36.9 °F /  2.7 °C 30in /  1016.9hPa Calm     95% 0in /  0.0mm 5 W/m2
06:12 38.1 °F /  3.4 °C 36.9 °F /  2.7 °C 30in /  1016.9hPa Calm     95% 0in /  0.0mm 5 W/m2
06:17 37.9 °F /  3.3 °C 36.7 °F /  2.6 °C 30in /  1016.9hPa Calm     95% 0in /  0.0mm 7 W/m2
06:22 37.9 °F /  3.3 °C 36.7 °F /  2.6 °C 30in /  1016.9hPa Calm     95% 0in /  0.0mm 9 W/m2
06:27 37.9 °F /  3.3 °C 36.7 °F /  2.6 °C 30in /  1016.9hPa Calm     95% 0in /  0.0mm 12 W/m2
06:32 37.8 °F /  3.2 °C 36.5 °F /  2.5 °C 30in /  1016.9hPa Calm     95% 0in /  0.0mm 16 W/m2
06:37 37.8 °F /  3.2 °C 36.5 °F /  2.5 °C 30in /  1017.3hPa Calm     95% 0in /  0.0mm 18 W/m2
06:42 37.8 °F /  3.2 °C 36.5 °F /  2.5 °C 30in /  1017.3hPa Calm     95% 0in /  0.0mm 21 W/m2
06:47 37.8 °F /  3.2 °C 36.7 °F /  2.6 °C 30in /  1017.3hPa Calm     96% 0in /  0.0mm 23 W/m2
06:52 37.9 °F /  3.3 °C 36.9 °F /  2.7 °C 30in /  1017.3hPa Calm     96% 0in /  0.0mm 26 W/m2
06:57 37.9 °F /  3.3 °C 36.9 °F /  2.7 °C 30in /  1017.3hPa Calm     96% 0in /  0.0mm 32 W/m2
07:02 38.1 °F /  3.4 °C 37 °F /  2.8 °C 30in /  1017.3hPa Calm     96% 0in /  0.0mm 35 W/m2
07:07 38.3 °F /  3.5 °C 37.2 °F /  2.9 °C 30in /  1017.3hPa Calm     96% 0in /  0.0mm 42 W/m2
07:12 38.5 °F /  3.6 °C 37.4 °F /  3 °C 30in /  1017.3hPa Calm     96% 0in /  0.0mm 39 W/m2
07:18 38.7 °F /  3.7 °C 37.6 °F /  3.1 °C 30in /  1017.3hPa Calm     96% 0in /  0.0mm 49 W/m2
07:23 38.7 °F /  3.7 °C 37.6 °F /  3.1 °C 30in /  1017.3hPa Calm     96% 0in /  0.0mm 67 W/m2
07:28 38.8 °F /  3.8 °C 37.8 °F /  3.2 °C 30.1in /  1017.6hPa Calm     96% 0in /  0.0mm 84 W/m2
07:33 39 °F /  3.9 °C 37.9 °F /  3.3 °C 30.1in /  1017.6hPa Calm     96% 0in /  0.0mm 105 W/m2
07:38 39.4 °F /  4.1 °C 38.3 °F /  3.5 °C 30.1in /  1017.6hPa Calm     96% 0in /  0.0mm 128 W/m2
07:43 39.7 °F /  4.3 °C 38.7 °F /  3.7 °C 30.1in /  1017.6hPa Calm   1mph /  1.6km/h 96% 0in /  0.0mm 148 W/m2
07:48 40.3 °F /  4.6 °C 39.2 °F /  4 °C 30.1in /  1017.6hPa Calm     96% 0in /  0.0mm 178 W/m2
07:53 40.5 °F /  4.7 °C 39.4 °F /  4.1 °C 30.1in /  1017.6hPa Calm   1mph /  1.6km/h 96% 0in /  0.0mm 183 W/m2
07:58 40.8 °F /  4.9 °C 39.7 °F /  4.3 °C 30.1in /  1017.6hPa Calm   1mph /  1.6km/h 96% 0in /  0.0mm 174 W/m2
08:03 41 °F /  5 °C 39.9 °F /  4.4 °C 30.1in /  1018.0hPa Calm     96% 0in /  0.0mm 162 W/m2
08:08 41.2 °F /  5.1 °C 40.1 °F /  4.5 °C 30.1in /  1018.0hPa Calm     96% 0in /  0.0mm 178 W/m2
08:13 41.4 °F /  5.2 °C 40.3 °F /  4.6 °C 30.1in /  1018.0hPa Calm     96% 0in /  0.0mm 183 W/m2
08:18 41.5 °F /  5.3 °C 40.5 °F /  4.7 °C 30.1in /  1018.0hPa Calm     96% 0in /  0.0mm 207 W/m2
08:23 42.1 °F /  5.6 °C 41 °F /  5 °C 30.1in /  1018.0hPa NE 0.9mph /  1.4km/h 1mph /  1.6km/h 96% 0in /  0.0mm 190 W/m2
08:28 42.3 °F /  5.7 °C 41.2 °F /  5.1 °C 30.1in /  1018.0hPa ESE 0.9mph /  1.4km/h 3mph /  4.8km/h 96% 0in /  0.0mm 169 W/m2
08:33 42.4 °F /  5.8 °C 41.4 °F /  5.2 °C 30.1in /  1018.0hPa ENE 0.9mph /  1.4km/h 1mph /  1.6km/h 96% 0in /  0.0mm 153 W/m2
08:38 42.4 °F /  5.8 °C 41.4 °F /  5.2 °C 30.1in /  1018.0hPa Calm   1mph /  1.6km/h 96% 0in /  0.0mm 134 W/m2
08:43 42.4 °F /  5.8 °C 41.4 °F /  5.2 °C 30.1in /  1018.0hPa East 2mph /  3.2km/h 2mph /  3.2km/h 96% 0in /  0.0mm 134 W/m2
08:48 42.6 °F /  5.9 °C 41.5 °F /  5.3 °C 30.1in /  1018.0hPa Calm   2mph /  3.2km/h 96% 0in /  0.0mm 123 W/m2
08:53 42.6 °F /  5.9 °C 41.5 °F /  5.3 °C 30.1in /  1018.0hPa Calm   1mph /  1.6km/h 96% 0in /  0.0mm 153 W/m2
08:58 42.8 °F /  6 °C 41.7 °F /  5.4 °C 30.1in /  1018.3hPa NE 0.9mph /  1.4km/h 2mph /  3.2km/h 96% 0in /  0.0mm 153 W/m2
09:03 43 °F /  6.1 °C 41.9 °F /  5.5 °C 30.1in /  1018.3hPa ENE 0.9mph /  1.4km/h 3mph /  4.8km/h 96% 0in /  0.0mm 155 W/m2
09:08 42.6 °F /  5.9 °C 41.5 °F /  5.3 °C 30.1in /  1018.3hPa NE 2mph /  3.2km/h 3mph /  4.8km/h 96% 0in /  0.0mm 165 W/m2
09:13 42.8 °F /  6 °C 41.7 °F /  5.4 °C 30.1in /  1018.3hPa ENE 0.9mph /  1.4km/h 2mph /  3.2km/h 96% 0in /  0.0mm 172 W/m2
09:18 43 °F /  6.1 °C 41.9 °F /  5.5 °C 30.1in /  1018.3hPa Calm   1mph /  1.6km/h 96% 0in /  0.0mm 172 W/m2
09:23 43.2 °F /  6.2 °C 42.1 °F /  5.6 °C 30.1in /  1018.3hPa East 2mph /  3.2km/h 2mph /  3.2km/h 96% 0in /  0.0mm 167 W/m2
09:28 43.2 °F /  6.2 °C 42.1 °F /  5.6 °C 30.1in /  1018.3hPa Calm   3mph /  4.8km/h 96% 0in /  0.0mm 134 W/m2
09:33 43.2 °F /  6.2 °C 42.1 °F /  5.6 °C 30.1in /  1018.3hPa Calm     96% 0in /  0.0mm 120 W/m2
09:38 43.3 °F /  6.3 °C 42.3 °F /  5.7 °C 30.1in /  1018.3hPa ENE 0.9mph /  1.4km/h 2mph /  3.2km/h 96% 0in /  0.0mm 156 W/m2
09:43 43.5 °F /  6.4 °C 42.4 °F /  5.8 °C 30.1in /  1018.3hPa East 0.9mph /  1.4km/h 3mph /  4.8km/h 96% 0in /  0.0mm 246 W/m2
09:48 43.7 °F /  6.5 °C 42.6 °F /  5.9 °C 30.1in /  1018.3hPa ESE 0.9mph /  1.4km/h 2mph /  3.2km/h 96% 0in /  0.0mm 294 W/m2
09:53 44.1 °F /  6.7 °C 43 °F /  6.1 °C 30.1in /  1018.3hPa ESE 0.9mph /  1.4km/h 2mph /  3.2km/h 96% 0in /  0.0mm 281 W/m2
09:58 44.4 °F /  6.9 °C 43.3 °F /  6.3 °C 30.1in /  1018.3hPa Calm   3mph /  4.8km/h 96% 0in /  0.0mm 666 W/m2
10:03 45.1 °F /  7.3 °C 44.1 °F /  6.7 °C 30.1in /  1018.3hPa NE 2mph /  3.2km/h 3mph /  4.8km/h 96% 0in /  0.0mm 388 W/m2
10:08 45.7 °F /  7.6 °C 44.6 °F /  7 °C 30.1in /  1018.3hPa Calm   1mph /  1.6km/h 96% 0in /  0.0mm 376 W/m2
10:14 46.2 °F /  7.9 °C 45.1 °F /  7.3 °C 30.1in /  1018.3hPa NE 0.9mph /  1.4km/h 4mph /  6.4km/h 96% 0in /  0.0mm 359 W/m2
10:19 46.6 °F /  8.1 °C 45.5 °F /  7.5 °C 30.1in /  1018.6hPa Calm   2mph /  3.2km/h 96% 0in /  0.0mm 397 W/m2
10:24 47.1 °F /  8.4 °C 45.7 °F /  7.6 °C 30.1in /  1018.3hPa East 2.9mph /  4.7km/h 4mph /  6.4km/h 95% 0in /  0.0mm 359 W/m2
10:29 47.5 °F /  8.6 °C 45.9 °F /  7.7 °C 30.1in /  1018.3hPa NE 0.9mph /  1.4km/h 2mph /  3.2km/h 94% 0in /  0.0mm 369 W/m2
10:34 48 °F /  8.9 °C 46.4 °F /  8 °C 30.1in /  1018.3hPa ENE 2mph /  3.2km/h 3mph /  4.8km/h 94% 0in /  0.0mm 332 W/m2
10:39 48.6 °F /  9.2 °C 46.4 °F /  8 °C 30.1in /  1018.3hPa NNE 2mph /  3.2km/h 2mph /  3.2km/h 92% 0in /  0.0mm 417 W/m2
10:44 48.9 °F /  9.4 °C 46.4 °F /  8 °C 30.1in /  1018.3hPa East 2mph /  3.2km/h 3mph /  4.8km/h 91% 0in /  0.0mm 450 W/m2
10:49 49.5 °F /  9.7 °C 46.6 °F /  8.1 °C 30.1in /  1018.3hPa Calm   1mph /  1.6km/h 90% 0in /  0.0mm 452 W/m2
10:54 50.2 °F /  10.1 °C 47.3 °F /  8.5 °C 30.1in /  1018.3hPa East 2.9mph /  4.7km/h 5mph /  8km/h 90% 0in /  0.0mm 401 W/m2
10:59 50.7 °F /  10.4 °C 47.3 °F /  8.5 °C 30.1in /  1018.3hPa ENE 0.9mph /  1.4km/h 2mph /  3.2km/h 88% 0in /  0.0mm 543 W/m2
11:04 51.3 °F /  10.7 °C 47.3 °F /  8.5 °C 30.1in /  1018.3hPa ENE 0.9mph /  1.4km/h 3mph /  4.8km/h 86% 0in /  0.0mm 457 W/m2
11:09 51.6 °F /  10.9 °C 47.3 °F /  8.5 °C 30.1in /  1018.0hPa East 0.9mph /  1.4km/h 4mph /  6.4km/h 85% 0in /  0.0mm 455 W/m2
11:14 52.5 °F /  11.4 °C 47.8 °F /  8.8 °C 30.1in /  1018.3hPa SE 2.9mph /  4.7km/h 4mph /  6.4km/h 84% 0in /  0.0mm 438 W/m2
11:19 53.1 °F /  11.7 °C 47.3 °F /  8.5 °C 30.1in /  1018.3hPa ENE 2mph /  3.2km/h 3mph /  4.8km/h 81% 0in /  0.0mm 415 W/m2
11:24 53.1 °F /  11.7 °C 47.3 °F /  8.5 °C 30.1in /  1018.0hPa NE 0.9mph /  1.4km/h 4mph /  6.4km/h 81% 0in /  0.0mm 499 W/m2
11:29 53.2 °F /  11.8 °C 47.8 °F /  8.8 °C 30.1in /  1018.0hPa Calm   3mph /  4.8km/h 82% 0in /  0.0mm 468 W/m2
11:34 54 °F /  12.2 °C 48.2 °F /  9 °C 30.1in /  1018.0hPa NE 0.9mph /  1.4km/h 3mph /  4.8km/h 81% 0in /  0.0mm 422 W/m2
11:39 54.3 °F /  12.4 °C 48 °F /  8.9 °C 30.1in /  1018.0hPa NE 4.9mph /  7.9km/h 5mph /  8km/h 79% 0in /  0.0mm 418 W/m2
11:44 54.5 °F /  12.5 °C 48.2 °F /  9 °C 30.1in /  1018.0hPa ESE 0.9mph /  1.4km/h 2mph /  3.2km/h 79% 0in /  0.0mm 429 W/m2
11:49 54.9 °F /  12.7 °C 48.2 °F /  9 °C 30.1in /  1018.3hPa Calm   3mph /  4.8km/h 78% 0in /  0.0mm 487 W/m2
11:54 55.6 °F /  13.1 °C 48.9 °F /  9.4 °C 30.1in /  1018.0hPa East 2mph /  3.2km/h 3mph /  4.8km/h 78% 0in /  0.0mm 584 W/m2
11:59 56.1 °F /  13.4 °C 48.9 °F /  9.4 °C 30.1in /  1018.0hPa ENE 4.9mph /  7.9km/h 5mph /  8km/h 77% 0in /  0.0mm 531 W/m2
12:04 56.5 °F /  13.6 °C 48.7 °F /  9.3 °C 30.1in /  1018.0hPa NE 4.9mph /  7.9km/h 5mph /  8km/h 75% 0in /  0.0mm 585 W/m2
12:09 56.7 °F /  13.7 °C 48.7 °F /  9.3 °C 30.1in /  1018.0hPa ESE 4mph /  6.4km/h 4mph /  6.4km/h 75% 0in /  0.0mm 461 W/m2
12:14 57 °F /  13.9 °C 48.7 °F /  9.3 °C 30.1in /  1018.0hPa East 2.9mph /  4.7km/h 4mph /  6.4km/h 74% 0in /  0.0mm 387 W/m2
12:19 57.6 °F /  14.2 °C 48.2 °F /  9 °C 30.1in /  1018.0hPa NE 0.9mph /  1.4km/h 4mph /  6.4km/h 71% 0in /  0.0mm 406 W/m2
12:24 57.7 °F /  14.3 °C 48 °F /  8.9 °C 30.1in /  1018.0hPa SSE 2.9mph /  4.7km/h 7mph /  11.3km/h 70% 0in /  0.0mm 390 W/m2
12:29 57.9 °F /  14.4 °C 48.2 °F /  9 °C 30.1in /  1018.0hPa ESE 4.9mph /  7.9km/h 5mph /  8km/h 70% 0in /  0.0mm 290 W/m2
12:34 58.1 °F /  14.5 °C 48 °F /  8.9 °C 30.1in /  1018.0hPa SE 2mph /  3.2km/h 2mph /  3.2km/h 69% 0in /  0.0mm 378 W/m2
12:39 58.5 °F /  14.7 °C 47.5 °F /  8.6 °C 30.1in /  1018.0hPa East 0.9mph /  1.4km/h 4mph /  6.4km/h 67% 0in /  0.0mm 283 W/m2
12:44 58.5 °F /  14.7 °C 47.5 °F /  8.6 °C 30.1in /  1018.3hPa Calm   3mph /  4.8km/h 67% 0in /  0.0mm 390 W/m2
12:49 58.6 °F /  14.8 °C 47.3 °F /  8.5 °C 30.1in /  1018.0hPa ENE 2mph /  3.2km/h 6mph /  9.7km/h 66% 0in /  0.0mm 271 W/m2
12:54 58.6 °F /  14.8 °C 47.3 °F /  8.5 °C 30.1in /  1018.0hPa NNE 0.9mph /  1.4km/h 2mph /  3.2km/h 66% 0in /  0.0mm 236 W/m2
12:59 58.8 °F /  14.9 °C 47.5 °F /  8.6 °C 30.1in /  1018.0hPa WNW 0.9mph /  1.4km/h 3mph /  4.8km/h 66% 0in /  0.0mm 258 W/m2
13:04 58.8 °F /  14.9 °C 47.1 °F /  8.4 °C 30.1in /  1018.0hPa NW 0.9mph /  1.4km/h 3mph /  4.8km/h 65% 0in /  0.0mm 336 W/m2
13:09 58.8 °F /  14.9 °C 46.6 °F /  8.1 °C 30.1in /  1018.0hPa West 0.9mph /  1.4km/h 2mph /  3.2km/h 64% 0in /  0.0mm 302 W/m2
13:14 58.8 °F /  14.9 °C 46.6 °F /  8.1 °C 30.1in /  1018.0hPa West 0.9mph /  1.4km/h 2mph /  3.2km/h 64% 0in /  0.0mm 468 W/m2
13:19 59.4 °F /  15.2 °C 47.7 °F /  8.7 °C 30.1in /  1018.0hPa East 2.9mph /  4.7km/h 3mph /  4.8km/h 65% 0in /  0.0mm 584 W/m2
13:24 59.9 °F /  15.5 °C 44.6 °F /  7 °C 30.1in /  1018.0hPa West 0.9mph /  1.4km/h 2mph /  3.2km/h 57% 0in /  0.0mm 575 W/m2
13:29 60.4 °F /  15.8 °C 44.2 °F /  6.8 °C 30.1in /  1017.6hPa East 2.9mph /  4.7km/h 3mph /  4.8km/h 55% 0in /  0.0mm 371 W/m2
13:34 60.6 °F /  15.9 °C 43.3 °F /  6.3 °C 30.1in /  1017.6hPa WNW 2.9mph /  4.7km/h 3mph /  4.8km/h 53% 0in /  0.0mm 367 W/m2
13:39 61 °F /  16.1 °C 43.7 °F /  6.5 °C 30.1in /  1017.6hPa WNW 2.9mph /  4.7km/h 3mph /  4.8km/h 53% 0in /  0.0mm 888 W/m2
13:44 61 °F /  16.1 °C 42.3 °F /  5.7 °C 30.1in /  1017.6hPa NW 4mph /  6.4km/h 5mph /  8km/h 50% 0in /  0.0mm 272 W/m2
13:49 60.8 °F /  16 °C 43 °F /  6.1 °C 30.1in /  1017.6hPa West 2mph /  3.2km/h 7mph /  11.3km/h 52% 0in /  0.0mm 320 W/m2
13:54 61 °F /  16.1 °C 43.7 °F /  6.5 °C 30.1in /  1017.6hPa WNW 4.9mph /  7.9km/h 5mph /  8km/h 53% 0in /  0.0mm 940 W/m2
13:59 61 °F /  16.1 °C 42.8 °F /  6 °C 30.1in /  1017.6hPa NW 2mph /  3.2km/h 7mph /  11.3km/h 51% 0in /  0.0mm 353 W/m2
14:04 61.2 °F /  16.2 °C 43.3 °F /  6.3 °C 30.1in /  1017.6hPa SW 2mph /  3.2km/h 9mph /  14.5km/h 52% 0in /  0.0mm 513 W/m2
14:09 61.2 °F /  16.2 °C 43 °F /  6.1 °C 30in /  1017.3hPa WNW 0.9mph /  1.4km/h 3mph /  4.8km/h 51% 0in /  0.0mm 497 W/m2
14:14 61.5 °F /  16.4 °C 42.6 °F /  5.9 °C 30in /  1017.3hPa NW 2.9mph /  4.7km/h 5mph /  8km/h 50% 0in /  0.0mm 355 W/m2
14:19 61.9 °F /  16.6 °C 44.1 °F /  6.7 °C 30in /  1017.3hPa Calm   1mph /  1.6km/h 52% 0in /  0.0mm 401 W/m2
14:24 61.9 °F /  16.6 °C 43.5 °F /  6.4 °C 30in /  1017.3hPa WNW 4mph /  6.4km/h 4mph /  6.4km/h 51% 0in /  0.0mm 397 W/m2
14:29 61.5 °F /  16.4 °C 42.6 °F /  5.9 °C 30in /  1017.3hPa WSW 0.9mph /  1.4km/h 6mph /  9.7km/h 50% 0in /  0.0mm 376 W/m2
14:34 61.5 °F /  16.4 °C 42.6 °F /  5.9 °C 30in /  1017.3hPa NNW 0.9mph /  1.4km/h 3mph /  4.8km/h 50% 0in /  0.0mm 410 W/m2
14:40 61.7 °F /  16.5 °C 42.8 °F /  6 °C 30in /  1017.3hPa NE 2.9mph /  4.7km/h 4mph /  6.4km/h 50% 0in /  0.0mm 515 W/m2
14:45 62.2 °F /  16.8 °C 43.3 °F /  6.3 °C 30in /  1017.3hPa SE 2mph /  3.2km/h 4mph /  6.4km/h 50% 0in /  0.0mm 548 W/m2
14:50 62.6 °F /  17 °C 42.1 °F /  5.6 °C 30in /  1017.3hPa WSW 0.9mph /  1.4km/h 4mph /  6.4km/h 47% 0in /  0.0mm 443 W/m2
14:55 62.2 °F /  16.8 °C 42.8 °F /  6 °C 30in /  1017.3hPa WNW 4mph /  6.4km/h 6mph /  9.7km/h 49% 0in /  0.0mm 784 W/m2
15:00 62.1 °F /  16.7 °C 42.6 °F /  5.9 °C 30in /  1017.3hPa West 4mph /  6.4km/h 4mph /  6.4km/h 49% 0in /  0.0mm 696 W/m2
15:05 62.1 °F /  16.7 °C 42.6 °F /  5.9 °C 30in /  1017.3hPa WNW 2.9mph /  4.7km/h 4mph /  6.4km/h 49% 0in /  0.0mm 418 W/m2
15:10 62.2 °F /  16.8 °C 43.3 °F /  6.3 °C 30in /  1017.3hPa West 0.9mph /  1.4km/h 3mph /  4.8km/h 50% 0in /  0.0mm 538 W/m2
15:15 62.8 °F /  17.1 °C 43.3 °F /  6.3 °C 30in /  1017.3hPa ENE 2.9mph /  4.7km/h 3mph /  4.8km/h 49% 0in /  0.0mm 490 W/m2
15:20 63.1 °F /  17.3 °C 43.2 °F /  6.2 °C 30in /  1016.9hPa West 6mph /  9.7km/h 8mph /  12.9km/h 48% 0in /  0.0mm 478 W/m2
15:25 63.1 °F /  17.3 °C 43.7 °F /  6.5 °C 30in /  1016.9hPa SSE 2mph /  3.2km/h 2mph /  3.2km/h 49% 0in /  0.0mm 548 W/m2
15:30 63.5 °F /  17.5 °C 44.1 °F /  6.7 °C 30in /  1016.9hPa East 2mph /  3.2km/h 4mph /  6.4km/h 49% 0in /  0.0mm 431 W/m2
15:35 63.9 °F /  17.7 °C 44.2 °F /  6.8 °C 30in /  1016.9hPa Calm   1mph /  1.6km/h 49% 0in /  0.0mm 371 W/m2
15:40 64 °F /  17.8 °C 43.9 °F /  6.6 °C 30in /  1016.9hPa WNW 0.9mph /  1.4km/h 3mph /  4.8km/h 48% 0in /  0.0mm 480 W/m2
15:45 64 °F /  17.8 °C 44.4 °F /  6.9 °C 30in /  1016.9hPa West 4mph /  6.4km/h 8mph /  12.9km/h 49% 0in /  0.0mm 469 W/m2
15:50 63.9 °F /  17.7 °C 44.2 °F /  6.8 °C 30in /  1016.9hPa NNE 2mph /  3.2km/h 3mph /  4.8km/h 49% 0in /  0.0mm 473 W/m2
15:55 63.3 °F /  17.4 °C 44.4 °F /  6.9 °C 30in /  1016.9hPa ENE 0.9mph /  1.4km/h 4mph /  6.4km/h 50% 0in /  0.0mm 343 W/m2
16:00 63.3 °F /  17.4 °C 44.4 °F /  6.9 °C 30in /  1016.9hPa NE 2mph /  3.2km/h 2mph /  3.2km/h 50% 0in /  0.0mm 353 W/m2
16:05 63.7 °F /  17.6 °C 45.1 °F /  7.3 °C 30in /  1016.6hPa NE 2mph /  3.2km/h 5mph /  8km/h 51% 0in /  0.0mm 712 W/m2
16:10 64.4 °F /  18 °C 46.4 °F /  8 °C 30in /  1016.6hPa ESE 0.9mph /  1.4km/h 4mph /  6.4km/h 52% 0in /  0.0mm 698 W/m2
16:15 64.9 °F /  18.3 °C 45.3 °F /  7.4 °C 30in /  1016.6hPa ENE 2.9mph /  4.7km/h 3mph /  4.8km/h 49% 0in /  0.0mm 780 W/m2
16:20 64.9 °F /  18.3 °C 44.2 °F /  6.8 °C 30in /  1016.6hPa West 2mph /  3.2km/h 2mph /  3.2km/h 47% 0in /  0.0mm 332 W/m2
16:25 64.9 °F /  18.3 °C 44.8 °F /  7.1 °C 30in /  1016.6hPa WNW 0.9mph /  1.4km/h 3mph /  4.8km/h 48% 0in /  0.0mm 313 W/m2
16:30 64.8 °F /  18.2 °C 43.5 °F /  6.4 °C 30in /  1016.6hPa East 2mph /  3.2km/h 2mph /  3.2km/h 46% 0in /  0.0mm 248 W/m2
16:35 64.4 °F /  18 °C 43.7 °F /  6.5 °C 30in /  1016.6hPa Calm   2mph /  3.2km/h 47% 0in /  0.0mm 271 W/m2
16:40 64.2 °F /  17.9 °C 44.1 °F /  6.7 °C 30in /  1016.6hPa West 6mph /  9.7km/h 6mph /  9.7km/h 48% 0in /  0.0mm 190 W/m2
16:45 63.9 °F /  17.7 °C 44.2 °F /  6.8 °C 30in /  1016.6hPa ENE 0.9mph /  1.4km/h 2mph /  3.2km/h 49% 0in /  0.0mm 223 W/m2
16:50 63.7 °F /  17.6 °C 45.7 °F /  7.6 °C 30in /  1016.6hPa East 2.9mph /  4.7km/h 3mph /  4.8km/h 52% 0in /  0.0mm 218 W/m2
16:55 63.3 °F /  17.4 °C 43.9 °F /  6.6 °C 30in /  1016.6hPa East 2.9mph /  4.7km/h 9mph /  14.5km/h 49% 0in /  0.0mm 179 W/m2
17:00 63.1 °F /  17.3 °C 44.2 °F /  6.8 °C 30in /  1016.6hPa Calm   6mph /  9.7km/h 50% 0in /  0.0mm 232 W/m2
17:05 63.1 °F /  17.3 °C 44.8 °F /  7.1 °C 30in /  1016.6hPa ESE 2mph /  3.2km/h 9mph /  14.5km/h 51% 0in /  0.0mm 241 W/m2
17:10 63.1 °F /  17.3 °C 45.1 °F /  7.3 °C 30in /  1016.6hPa ENE 0.9mph /  1.4km/h 2mph /  3.2km/h 52% 0in /  0.0mm 223 W/m2
17:15 63.1 °F /  17.3 °C 44.2 °F /  6.8 °C 30in /  1016.6hPa ENE 2.9mph /  4.7km/h 4mph /  6.4km/h 50% 0in /  0.0mm 223 W/m2
17:21 63.1 °F /  17.3 °C 44.2 °F /  6.8 °C 30in /  1016.3hPa NE 0.9mph /  1.4km/h 2mph /  3.2km/h 50% 0in /  0.0mm 202 W/m2
17:26 63.1 °F /  17.3 °C 44.8 °F /  7.1 °C 30in /  1016.3hPa NE 2mph /  3.2km/h 4mph /  6.4km/h 51% 0in /  0.0mm 171 W/m2
17:31 63.1 °F /  17.3 °C 45.1 °F /  7.3 °C 30in /  1016.3hPa East 2mph /  3.2km/h 2mph /  3.2km/h 52% 0in /  0.0mm 142 W/m2
17:36 63.1 °F /  17.3 °C 46.2 °F /  7.9 °C 30in /  1016.3hPa NW 0.9mph /  1.4km/h 2mph /  3.2km/h 54% 0in /  0.0mm 97 W/m2
17:41 63.1 °F /  17.3 °C 47.1 °F /  8.4 °C 30in /  1016.3hPa NE 0.9mph /  1.4km/h 1mph /  1.6km/h 56% 0in /  0.0mm 113 W/m2
17:46 62.8 °F /  17.1 °C 45.9 °F /  7.7 °C 30in /  1016.3hPa NE 0.9mph /  1.4km/h 1mph /  1.6km/h 54% 0in /  0.0mm 123 W/m2
17:52 62.8 °F /  17.1 °C 45.9 °F /  7.7 °C 30in /  1016.3hPa Calm   1mph /  1.6km/h 54% 0in /  0.0mm 134 W/m2
17:57 62.4 °F /  16.9 °C 44.6 °F /  7 °C 30in /  1016.3hPa Calm   2mph /  3.2km/h 52% 0in /  0.0mm 113 W/m2
18:02 62.4 °F /  16.9 °C 46.6 °F /  8.1 °C 30in /  1016.3hPa Calm     56% 0in /  0.0mm 84 W/m2
18:07 62.4 °F /  16.9 °C 45.1 °F /  7.3 °C 30in /  1016.3hPa Calm   2mph /  3.2km/h 53% 0in /  0.0mm 76 W/m2
18:12 62.2 °F /  16.8 °C 47.3 °F /  8.5 °C 30in /  1016.3hPa Calm     58% 0in /  0.0mm 77 W/m2
18:17 62.1 °F /  16.7 °C 46.2 °F /  7.9 °C 30in /  1016.3hPa Calm     56% 0in /  0.0mm 86 W/m2
18:22 62.1 °F /  16.7 °C 47.5 °F /  8.6 °C 30in /  1016.3hPa Calm   1mph /  1.6km/h 59% 0in /  0.0mm 93 W/m2
18:27 61.9 °F /  16.6 °C 48.7 °F /  9.3 °C 30in /  1016.3hPa West 0.9mph /  1.4km/h 1mph /  1.6km/h 62% 0in /  0.0mm 76 W/m2
18:32 61.7 °F /  16.5 °C 49.5 °F /  9.7 °C 30in /  1016.3hPa Calm     64% 0in /  0.0mm 72 W/m2
18:37 61.5 °F /  16.4 °C 48.4 °F /  9.1 °C 30in /  1016.3hPa Calm   1mph /  1.6km/h 62% 0in /  0.0mm 79 W/m2
18:42 61.3 °F /  16.3 °C 48.2 °F /  9 °C 30in /  1016.3hPa Calm     62% 0in /  0.0mm 84 W/m2
18:47 61.3 °F /  16.3 °C 47.3 °F /  8.5 °C 30in /  1016.3hPa Calm   1mph /  1.6km/h 60% 0in /  0.0mm 72 W/m2
18:52 61.3 °F /  16.3 °C 47.3 °F /  8.5 °C 30in /  1016.3hPa Calm     60% 0in /  0.0mm 84 W/m2
18:58 61.3 °F /  16.3 °C 46.9 °F /  8.3 °C 30in /  1016.3hPa Calm   1mph /  1.6km/h 59% 0in /  0.0mm 84 W/m2
19:03 61.3 °F /  16.3 °C 47.8 °F /  8.8 °C 30in /  1016.3hPa Calm   1mph /  1.6km/h 61% 0in /  0.0mm 70 W/m2
19:08 61.2 °F /  16.2 °C 48.9 °F /  9.4 °C 30in /  1016.3hPa Calm     64% 0in /  0.0mm 56 W/m2
19:13 61.2 °F /  16.2 °C 49.3 °F /  9.6 °C 30in /  1016.3hPa Calm   2mph /  3.2km/h 65% 0in /  0.0mm 47 W/m2
19:18 61 °F /  16.1 °C 50 °F /  10 °C 30in /  1016.3hPa East 0.9mph /  1.4km/h 1mph /  1.6km/h 67% 0in /  0.0mm 44 W/m2
19:23 60.8 °F /  16 °C 48.2 °F /  9 °C 30in /  1015.9hPa Calm     63% 0in /  0.0mm 40 W/m2
19:28 60.6 °F /  15.9 °C 48.4 °F /  9.1 °C 30in /  1015.9hPa Calm     64% 0in /  0.0mm 37 W/m2
19:33 60.4 °F /  15.8 °C 49.1 °F /  9.5 °C 30in /  1015.9hPa Calm     66% 0in /  0.0mm 33 W/m2
19:38 60.3 °F /  15.7 °C 49.3 °F /  9.6 °C 30in /  1015.9hPa Calm     67% 0in /  0.0mm 33 W/m2
19:43 60.1 °F /  15.6 °C 49.1 °F /  9.5 °C 30in /  1015.9hPa Calm     67% 0in /  0.0mm 32 W/m2
19:48 59.7 °F /  15.4 °C 49.5 °F /  9.7 °C 30in /  1015.9hPa Calm     69% 0in /  0.0mm 26 W/m2
19:53 59.5 °F /  15.3 °C 49.8 °F /  9.9 °C 30in /  1015.9hPa Calm     70% 0in /  0.0mm 28 W/m2
19:58 59.4 °F /  15.2 °C 49.6 °F /  9.8 °C 30in /  1015.9hPa Calm     70% 0in /  0.0mm 28 W/m2
20:03 59.2 °F /  15.1 °C 49.1 °F /  9.5 °C 30in /  1015.9hPa Calm     69% 0in /  0.0mm 26 W/m2
20:08 58.8 °F /  14.9 °C 48.7 °F /  9.3 °C 30in /  1015.9hPa Calm     69% 0in /  0.0mm 21 W/m2
20:13 58.8 °F /  14.9 °C 48.7 °F /  9.3 °C 30in /  1015.9hPa Calm     69% 0in /  0.0mm 18 W/m2
20:18 58.6 °F /  14.8 °C 48.6 °F /  9.2 °C 30in /  1015.9hPa Calm     69% 0in /  0.0mm 16 W/m2
20:23 58.5 °F /  14.7 °C 48.4 °F /  9.1 °C 30in /  1015.9hPa Calm     69% 0in /  0.0mm 14 W/m2
20:28 58.3 °F /  14.6 °C 48.6 °F /  9.2 °C 30in /  1015.9hPa Calm     70% 0in /  0.0mm 12 W/m2
20:33 58.1 °F /  14.5 °C 48.7 °F /  9.3 °C 30in /  1015.9hPa Calm     71% 0in /  0.0mm 12 W/m2
20:38 57.7 °F /  14.3 °C 48.4 °F /  9.1 °C 30in /  1015.9hPa Calm     71% 0in /  0.0mm 11 W/m2
20:43 57.6 °F /  14.2 °C 48.6 °F /  9.2 °C 30in /  1015.9hPa East 0.9mph /  1.4km/h 1mph /  1.6km/h 72% 0in /  0.0mm 5 W/m2
20:48 57.4 °F /  14.1 °C 48.4 °F /  9.1 °C 30in /  1015.9hPa East 0.9mph /  1.4km/h 2mph /  3.2km/h 72% 0in /  0.0mm 0 W/m2
20:53 57.2 °F /  14 °C 48.6 °F /  9.2 °C 30in /  1015.9hPa East 0.9mph /  1.4km/h 2mph /  3.2km/h 73% 0in /  0.0mm 0 W/m2
20:58 57 °F /  13.9 °C 48.4 °F /  9.1 °C 30in /  1015.9hPa Calm   1mph /  1.6km/h 73% 0in /  0.0mm 0 W/m2
21:03 56.8 °F /  13.8 °C 48.2 °F /  9 °C 30in /  1016.3hPa Calm     73% 0in /  0.0mm 0 W/m2
21:08 56.7 °F /  13.7 °C 48.4 °F /  9.1 °C 30in /  1016.3hPa Calm   1mph /  1.6km/h 74% 0in /  0.0mm 0 W/m2
21:13 56.5 °F /  13.6 °C 48.4 °F /  9.1 °C 30in /  1016.3hPa East 0.9mph /  1.4km/h 1mph /  1.6km/h 74% 0in /  0.0mm 0 W/m2
21:18 56.5 °F /  13.6 °C 48.7 °F /  9.3 °C 30in /  1016.3hPa East 0.9mph /  1.4km/h 1mph /  1.6km/h 75% 0in /  0.0mm 0 W/m2
21:24 56.1 °F /  13.4 °C 48.4 °F /  9.1 °C 30in /  1016.3hPa Calm     75% 0in /  0.0mm 0 W/m2
21:29 56.1 °F /  13.4 °C 48.4 °F /  9.1 °C 30in /  1016.3hPa Calm     75% 0in /  0.0mm 0 W/m2
21:34 55.9 °F /  13.3 °C 48.2 °F /  9 °C 30in /  1016.3hPa Calm     75% 0in /  0.0mm 0 W/m2
21:39 55.9 °F /  13.3 °C 48.6 °F /  9.2 °C 30in /  1016.3hPa Calm     76% 0in /  0.0mm 0 W/m2
21:44 55.8 °F /  13.2 °C 48.4 °F /  9.1 °C 30in /  1016.3hPa Calm     76% 0in /  0.0mm 0 W/m2
21:49 55.8 °F /  13.2 °C 48.7 °F /  9.3 °C 30in /  1016.3hPa Calm     77% 0in /  0.0mm 0 W/m2
21:54 55.8 °F /  13.2 °C 48.7 °F /  9.3 °C 30in /  1016.3hPa East 0.9mph /  1.4km/h 1mph /  1.6km/h 77% 0in /  0.0mm 0 W/m2
21:59 55.6 °F /  13.1 °C 48.6 °F /  9.2 °C 30in /  1016.3hPa East 0.9mph /  1.4km/h 1mph /  1.6km/h 77% 0in /  0.0mm 0 W/m2
22:04 55.6 °F /  13.1 °C 48.9 °F /  9.4 °C 30in /  1016.3hPa East 0.9mph /  1.4km/h 1mph /  1.6km/h 78% 0in /  0.0mm 0 W/m2
22:09 55.4 °F /  13 °C 48.7 °F /  9.3 °C 30in /  1016.3hPa Calm     78% 0in /  0.0mm 0 W/m2
22:14 55.4 °F /  13 °C 48.7 °F /  9.3 °C 30in /  1016.3hPa Calm     78% 0in /  0.0mm 0 W/m2
22:19 55.2 °F /  12.9 °C 48.6 °F /  9.2 °C 30in /  1016.3hPa Calm     78% 0in /  0.0mm 0 W/m2
22:24 55.2 °F /  12.9 °C 48.6 °F /  9.2 °C 30in /  1016.3hPa East 0.9mph /  1.4km/h 2mph /  3.2km/h 78% 0in /  0.0mm 0 W/m2
22:29 55 °F /  12.8 °C 48.4 °F /  9.1 °C 30in /  1016.3hPa East 2mph /  3.2km/h 2mph /  3.2km/h 78% 0in /  0.0mm 0 W/m2
22:34 54.9 °F /  12.7 °C 48.2 °F /  9 °C 30in /  1016.3hPa East 0.9mph /  1.4km/h 1mph /  1.6km/h 78% 0in /  0.0mm 0 W/m2
22:39 54.9 °F /  12.7 °C 48.2 °F /  9 °C 30in /  1016.3hPa East 0.9mph /  1.4km/h 2mph /  3.2km/h 78% 0in /  0.0mm 0 W/m2
22:44 54.5 °F /  12.5 °C 47.8 °F /  8.8 °C 30in /  1016.3hPa East 0.9mph /  1.4km/h 2mph /  3.2km/h 78% 0in /  0.0mm 0 W/m2
22:49 54.1 °F /  12.3 °C 47.5 °F /  8.6 °C 30in /  1016.3hPa East 2mph /  3.2km/h 2mph /  3.2km/h 78% 0in /  0.0mm 0 W/m2
22:54 54 °F /  12.2 °C 47.3 °F /  8.5 °C 30in /  1016.3hPa East 0.9mph /  1.4km/h 1mph /  1.6km/h 78% 0in /  0.0mm 0 W/m2
22:59 53.8 °F /  12.1 °C 47.5 °F /  8.6 °C 30in /  1016.3hPa Calm   1mph /  1.6km/h 79% 0in /  0.0mm 0 W/m2
23:04 53.8 °F /  12.1 °C 47.5 °F /  8.6 °C 30in /  1016.3hPa Calm     79% 0in /  0.0mm 0 W/m2
23:09 53.6 °F /  12 °C 47.3 °F /  8.5 °C 30in /  1016.3hPa Calm     79% 0in /  0.0mm 0 W/m2
23:14 53.6 °F /  12 °C 47.3 °F /  8.5 °C 30in /  1016.3hPa Calm     79% 0in /  0.0mm 0 W/m2
23:19 53.6 °F /  12 °C 47.7 °F /  8.7 °C 30in /  1016.3hPa Calm     80% 0in /  0.0mm 0 W/m2
23:24 53.4 °F /  11.9 °C 47.5 °F /  8.6 °C 30in /  1016.3hPa Calm     80% 0in /  0.0mm 0 W/m2
23:29 53.2 °F /  11.8 °C 46.9 °F /  8.3 °C 30in /  1016.3hPa Calm     79% 0in /  0.0mm 0 W/m2
23:34 53.1 °F /  11.7 °C 47.1 °F /  8.4 °C 30in /  1016.3hPa Calm     80% 0in /  0.0mm 0 W/m2
23:39 52.9 °F /  11.6 °C 46.9 °F /  8.3 °C 30in /  1016.3hPa Calm     80% 0in /  0.0mm 0 W/m2
23:44 52.9 °F /  11.6 °C 47.3 °F /  8.5 °C 30in /  1016.3hPa Calm     81% 0in /  0.0mm 0 W/m2
23:49 52.5 °F /  11.4 °C 46.9 °F /  8.3 °C 30in /  1016.3hPa Calm     81% 0in /  0.0mm 0 W/m2
23:55 52.5 °F /  11.4 °C 46.9 °F /  8.3 °C 30in /  1016.3hPa Calm     81% 0in /  0.0mm 0 W/m2
Juneau County Weather
Compliments of Weather Underground - 2 mb